Aérodrome :
LOGIN :

S'inscrire | Disclaimer

   EN    FR    IT 

 










Légende :    VFR   VFR Marginal   IFR   IFR Intensif   IFR Très Intensif
Visi : 
Plafond : 
>= 8 km
>= 3000ft
5 à 8 km
1000 à 3000 ft
1500m à 5 km
500 à 1000 ft
800 à 1500m
200 à 500 ft
< 800m
< 200 ft
Symboles :   Orages  Brouillard  Fortes neiges  Fortes précipitations  Vent > 20 kt
SIGMETs :   Divers  Orages  Givrage  Turbulence  Onde Orograph.  Cendres Volcan.







- Altitude de l'aérodrome : 135 ft
- Code IATA : EDI
- Voir les cartes d'approche


EGPH - Edinburgh

DERNIER METAR :
  • 180550Z 25005KT CAVOK 05/02 Q1017

METARs EXPIRÉS :
  • 180520Z 24005KT CAVOK 05/01 Q1016
  • 180450Z 25007KT 9999 FEW046 06/02 Q1016
  • 180420Z 25010KT 9999 FEW031 06/03 Q1016
  • 180350Z 25011KT 9999 SCT030 BKN047 06/04 Q1016

TAF TAF EGPH
Valide du 18 à 06h jusqu'au 19 à 06h UTC


180459Z 1806/1906 25012KT 9999 FEW045
ATIS : +44 131 339 2823
Pas de NOTAMs connus pour ce terrain.
1 SIGMET publié pour la FIR Scottish (EGPX) :
 
Turbulence forte
EGPX SIGMET 02 VALID 180600/181000 EGRR
EGPX SCOTTISH FIR SEV TURB FCST NE OF LINE N6057 W00737 - N5500 E00238 SFC/FL060 MOV E 10KT NC=



MET'MAP, la Météo Aéronautique d'un coup d'oeil ! - Copyright ORBIFLY Décembre 2007 - Disclaimer

ORBIFLY MET'MAP TEAM :

Programmation & Développement : Alexandra Zaïnal
Conception & Développement : Baudouin d'Aumeries
Co-Programmation & Développement : Marc-Olivier Méhu
Soutien technique & logistique : Manuel Goepfert

Contact : metmap@orbifly.com




SOURCES & CREDITS :

   NOAA